sensor_id;sensor_type;location;lat;lon;timestamp;P1;durP1;ratioP1;P2;durP2;ratioP2
84080;SDS011;74173;48.190;16.350;2023-11-21T00:01:59;5.88;;;4.95;;
84080;SDS011;74173;48.190;16.350;2023-11-21T00:04:24;5.18;;;4.65;;
84080;SDS011;74173;48.190;16.350;2023-11-21T00:06:53;7.60;;;4.30;;
84080;SDS011;74173;48.190;16.350;2023-11-21T00:09:19;7.28;;;4.18;;
84080;SDS011;74173;48.190;16.350;2023-11-21T00:11:45;6.10;;;4.78;;
84080;SDS011;74173;48.190;16.350;2023-11-21T00:14:13;5.93;;;4.22;;
84080;SDS011;74173;48.190;16.350;2023-11-21T00:16:40;4.97;;;4.03;;
84080;SDS011;74173;48.190;16.350;2023-11-21T00:19:06;5.57;;;4.43;;
84080;SDS011;74173;48.190;16.350;2023-11-21T00:21:32;4.93;;;3.30;;
84080;SDS011;74173;48.190;16.350;2023-11-21T00:23:57;5.30;;;3.42;;
84080;SDS011;74173;48.190;16.350;2023-11-21T00:26:23;6.60;;;4.30;;
84080;SDS011;74173;48.190;16.350;2023-11-21T00:28:49;6.35;;;3.88;;
84080;SDS011;74173;48.190;16.350;2023-11-21T00:31:15;5.93;;;3.42;;
84080;SDS011;74173;48.190;16.350;2023-11-21T00:33:41;4.95;;;3.70;;
84080;SDS011;74173;48.190;16.350;2023-11-21T00:36:07;5.72;;;4.13;;
84080;SDS011;74173;48.190;16.350;2023-11-21T00:38:37;6.85;;;4.25;;
84080;SDS011;74173;48.190;16.350;2023-11-21T00:41:06;8.52;;;3.97;;
84080;SDS011;74173;48.190;16.350;2023-11-21T00:43:31;4.35;;;3.75;;
84080;SDS011;74173;48.190;16.350;2023-11-21T00:45:58;4.47;;;3.78;;
84080;SDS011;74173;48.190;16.350;2023-11-21T00:48:24;6.88;;;3.92;;
84080;SDS011;74173;48.190;16.350;2023-11-21T00:50:50;5.05;;;3.92;;
84080;SDS011;74173;48.190;16.350;2023-11-21T00:53:15;6.00;;;3.80;;
84080;SDS011;74173;48.190;16.350;2023-11-21T00:55:42;7.40;;;4.07;;
84080;SDS011;74173;48.190;16.350;2023-11-21T00:58:07;4.90;;;3.95;;
84080;SDS011;74173;48.190;16.350;2023-11-21T01:00:33;8.80;;;4.25;;
84080;SDS011;74173;48.190;16.350;2023-11-21T01:02:59;5.35;;;4.20;;
84080;SDS011;74173;48.190;16.350;2023-11-21T01:05:25;4.35;;;3.63;;
84080;SDS011;74173;48.190;16.350;2023-11-21T01:07:52;4.55;;;3.88;;
84080;SDS011;74173;48.190;16.350;2023-11-21T01:10:17;5.05;;;4.03;;
84080;SDS011;74173;48.190;16.350;2023-11-21T01:12:43;6.40;;;3.65;;
84080;SDS011;74173;48.190;16.350;2023-11-21T01:15:09;6.15;;;5.55;;
84080;SDS011;74173;48.190;16.350;2023-11-21T01:17:37;7.00;;;4.00;;
84080;SDS011;74173;48.190;16.350;2023-11-21T01:20:03;10.63;;;4.95;;
84080;SDS011;74173;48.190;16.350;2023-11-21T01:22:37;4.80;;;4.28;;
84080;SDS011;74173;48.190;16.350;2023-11-21T01:25:02;5.65;;;3.80;;
84080;SDS011;74173;48.190;16.350;2023-11-21T01:27:36;9.30;;;4.05;;
84080;SDS011;74173;48.190;16.350;2023-11-21T01:30:05;5.50;;;3.67;;
84080;SDS011;74173;48.190;16.350;2023-11-21T01:32:33;6.50;;;3.72;;
84080;SDS011;74173;48.190;16.350;2023-11-21T01:34:59;4.88;;;4.40;;
84080;SDS011;74173;48.190;16.350;2023-11-21T01:37:25;4.50;;;3.78;;
84080;SDS011;74173;48.190;16.350;2023-11-21T01:39:53;4.50;;;4.10;;
84080;SDS011;74173;48.190;16.350;2023-11-21T01:42:24;7.30;;;4.72;;
84080;SDS011;74173;48.190;16.350;2023-11-21T01:44:49;4.82;;;4.15;;
84080;SDS011;74173;48.190;16.350;2023-11-21T01:47:15;8.82;;;4.85;;
84080;SDS011;74173;48.190;16.350;2023-11-21T01:49:43;5.13;;;4.18;;
84080;SDS011;74173;48.190;16.350;2023-11-21T01:52:09;4.38;;;3.97;;
84080;SDS011;74173;48.190;16.350;2023-11-21T01:54:36;5.65;;;4.43;;
84080;SDS011;74173;48.190;16.350;2023-11-21T01:57:03;6.47;;;3.78;;
84080;SDS011;74173;48.190;16.350;2023-11-21T01:59:35;7.40;;;6.03;;
84080;SDS011;74173;48.190;16.350;2023-11-21T02:02:06;5.05;;;3.53;;
84080;SDS011;74173;48.190;16.350;2023-11-21T02:04:32;6.22;;;4.82;;
84080;SDS011;74173;48.190;16.350;2023-11-21T02:06:58;5.57;;;4.22;;
84080;SDS011;74173;48.190;16.350;2023-11-21T02:09:27;4.70;;;3.92;;
84080;SDS011;74173;48.190;16.350;2023-11-21T02:11:55;5.00;;;3.85;;
84080;SDS011;74173;48.190;16.350;2023-11-21T02:14:21;5.70;;;4.40;;
84080;SDS011;74173;48.190;16.350;2023-11-21T02:16:48;6.97;;;4.57;;
84080;SDS011;74173;48.190;16.350;2023-11-21T02:19:17;9.48;;;4.15;;
84080;SDS011;74173;48.190;16.350;2023-11-21T02:21:55;7.80;;;4.25;;
84080;SDS011;74173;48.190;16.350;2023-11-21T02:24:24;6.05;;;4.25;;
84080;SDS011;74173;48.190;16.350;2023-11-21T02:26:50;6.60;;;4.00;;
84080;SDS011;74173;48.190;16.350;2023-11-21T02:29:19;6.10;;;4.40;;
84080;SDS011;74173;48.190;16.350;2023-11-21T02:31:47;6.30;;;3.90;;
84080;SDS011;74173;48.190;16.350;2023-11-21T02:34:15;5.30;;;4.38;;
84080;SDS011;74173;48.190;16.350;2023-11-21T02:36:42;6.13;;;4.53;;
84080;SDS011;74173;48.190;16.350;2023-11-21T02:39:09;5.18;;;3.60;;
84080;SDS011;74173;48.190;16.350;2023-11-21T02:41:38;8.95;;;3.85;;
84080;SDS011;74173;48.190;16.350;2023-11-21T02:44:07;7.60;;;4.07;;
84080;SDS011;74173;48.190;16.350;2023-11-21T02:46:33;7.05;;;3.72;;
84080;SDS011;74173;48.190;16.350;2023-11-21T02:49:05;5.13;;;4.07;;
84080;SDS011;74173;48.190;16.350;2023-11-21T02:51:31;6.15;;;4.20;;
84080;SDS011;74173;48.190;16.350;2023-11-21T02:53:58;6.07;;;3.97;;
84080;SDS011;74173;48.190;16.350;2023-11-21T02:56:26;4.60;;;3.88;;
84080;SDS011;74173;48.190;16.350;2023-11-21T02:58:51;6.82;;;3.88;;
84080;SDS011;74173;48.190;16.350;2023-11-21T03:01:17;6.93;;;4.80;;
84080;SDS011;74173;48.190;16.350;2023-11-21T03:03:43;4.18;;;3.58;;
84080;SDS011;74173;48.190;16.350;2023-11-21T03:06:08;5.55;;;4.63;;
84080;SDS011;74173;48.190;16.350;2023-11-21T03:08:34;4.75;;;3.90;;
84080;SDS011;74173;48.190;16.350;2023-11-21T03:11:00;8.38;;;4.20;;
84080;SDS011;74173;48.190;16.350;2023-11-21T03:13:28;9.13;;;4.18;;
84080;SDS011;74173;48.190;16.350;2023-11-21T03:15:54;5.70;;;4.40;;
84080;SDS011;74173;48.190;16.350;2023-11-21T03:18:21;6.25;;;5.65;;
84080;SDS011;74173;48.190;16.350;2023-11-21T03:23:17;4.93;;;3.47;;
84080;SDS011;74173;48.190;16.350;2023-11-21T03:25:42;4.60;;;3.85;;
84080;SDS011;74173;48.190;16.350;2023-11-21T03:28:08;7.63;;;4.53;;
84080;SDS011;74173;48.190;16.350;2023-11-21T03:30:34;7.18;;;3.60;;
84080;SDS011;74173;48.190;16.350;2023-11-21T03:32:59;6.57;;;3.90;;
84080;SDS011;74173;48.190;16.350;2023-11-21T03:35:25;6.30;;;5.65;;
84080;SDS011;74173;48.190;16.350;2023-11-21T03:37:51;6.10;;;4.47;;
84080;SDS011;74173;48.190;16.350;2023-11-21T03:40:17;5.32;;;4.00;;
84080;SDS011;74173;48.190;16.350;2023-11-21T03:42:42;4.38;;;3.10;;
84080;SDS011;74173;48.190;16.350;2023-11-21T03:45:08;5.22;;;4.05;;
84080;SDS011;74173;48.190;16.350;2023-11-21T03:47:34;5.70;;;3.83;;
84080;SDS011;74173;48.190;16.350;2023-11-21T03:49:59;5.88;;;3.60;;
84080;SDS011;74173;48.190;16.350;2023-11-21T03:52:25;4.25;;;3.42;;
84080;SDS011;74173;48.190;16.350;2023-11-21T03:54:50;7.68;;;4.03;;
84080;SDS011;74173;48.190;16.350;2023-11-21T03:57:16;6.22;;;4.03;;
84080;SDS011;74173;48.190;16.350;2023-11-21T03:59:41;7.78;;;4.55;;
84080;SDS011;74173;48.190;16.350;2023-11-21T04:02:08;7.45;;;4.85;;
84080;SDS011;74173;48.190;16.350;2023-11-21T04:04:34;5.50;;;4.47;;
84080;SDS011;74173;48.190;16.350;2023-11-21T04:07:01;5.47;;;4.05;;
84080;SDS011;74173;48.190;16.350;2023-11-21T04:09:27;8.57;;;4.38;;
84080;SDS011;74173;48.190;16.350;2023-11-21T04:11:53;7.00;;;4.32;;
84080;SDS011;74173;48.190;16.350;2023-11-21T04:14:18;7.03;;;4.43;;
84080;SDS011;74173;48.190;16.350;2023-11-21T04:16:45;6.18;;;4.88;;
84080;SDS011;74173;48.190;16.350;2023-11-21T04:19:10;7.78;;;5.32;;
84080;SDS011;74173;48.190;16.350;2023-11-21T04:21:37;4.97;;;4.20;;
84080;SDS011;74173;48.190;16.350;2023-11-21T04:24:03;8.65;;;5.97;;
84080;SDS011;74173;48.190;16.350;2023-11-21T04:26:29;5.03;;;4.53;;
84080;SDS011;74173;48.190;16.350;2023-11-21T04:28:54;9.32;;;4.22;;
84080;SDS011;74173;48.190;16.350;2023-11-21T04:31:20;8.32;;;4.28;;
84080;SDS011;74173;48.190;16.350;2023-11-21T04:33:46;7.65;;;4.35;;
84080;SDS011;74173;48.190;16.350;2023-11-21T04:36:12;7.95;;;4.82;;
84080;SDS011;74173;48.190;16.350;2023-11-21T04:38:37;7.10;;;4.70;;
84080;SDS011;74173;48.190;16.350;2023-11-21T04:41:03;6.22;;;5.63;;
84080;SDS011;74173;48.190;16.350;2023-11-21T04:43:28;8.82;;;5.32;;
84080;SDS011;74173;48.190;16.350;2023-11-21T04:45:54;6.60;;;4.13;;
84080;SDS011;74173;48.190;16.350;2023-11-21T04:48:20;7.82;;;4.68;;
84080;SDS011;74173;48.190;16.350;2023-11-21T04:50:46;7.13;;;4.10;;
84080;SDS011;74173;48.190;16.350;2023-11-21T04:53:11;7.18;;;6.50;;
84080;SDS011;74173;48.190;16.350;2023-11-21T04:55:40;4.47;;;3.97;;
84080;SDS011;74173;48.190;16.350;2023-11-21T04:58:07;6.88;;;6.25;;
84080;SDS011;74173;48.190;16.350;2023-11-21T05:00:33;7.72;;;4.75;;
84080;SDS011;74173;48.190;16.350;2023-11-21T05:02:59;10.35;;;4.65;;
84080;SDS011;74173;48.190;16.350;2023-11-21T05:05:26;7.10;;;4.68;;
84080;SDS011;74173;48.190;16.350;2023-11-21T05:07:52;6.88;;;5.38;;
84080;SDS011;74173;48.190;16.350;2023-11-21T05:10:19;6.07;;;5.25;;
84080;SDS011;74173;48.190;16.350;2023-11-21T05:12:44;7.75;;;5.35;;
84080;SDS011;74173;48.190;16.350;2023-11-21T05:15:14;9.73;;;3.97;;
84080;SDS011;74173;48.190;16.350;2023-11-21T05:17:40;8.00;;;6.13;;
84080;SDS011;74173;48.190;16.350;2023-11-21T05:20:10;6.20;;;4.47;;
84080;SDS011;74173;48.190;16.350;2023-11-21T05:22:37;6.47;;;4.40;;
84080;SDS011;74173;48.190;16.350;2023-11-21T05:25:03;8.23;;;4.93;;
84080;SDS011;74173;48.190;16.350;2023-11-21T05:27:29;6.25;;;4.45;;
84080;SDS011;74173;48.190;16.350;2023-11-21T05:29:58;7.53;;;4.78;;
84080;SDS011;74173;48.190;16.350;2023-11-21T05:32:24;5.28;;;4.32;;
84080;SDS011;74173;48.190;16.350;2023-11-21T05:34:50;7.47;;;3.97;;
84080;SDS011;74173;48.190;16.350;2023-11-21T05:37:16;5.95;;;4.13;;
84080;SDS011;74173;48.190;16.350;2023-11-21T05:39:42;8.52;;;4.57;;
84080;SDS011;74173;48.190;16.350;2023-11-21T05:42:08;6.35;;;4.22;;
84080;SDS011;74173;48.190;16.350;2023-11-21T05:44:36;7.00;;;5.60;;
84080;SDS011;74173;48.190;16.350;2023-11-21T05:47:02;7.28;;;5.10;;
84080;SDS011;74173;48.190;16.350;2023-11-21T05:49:28;6.85;;;5.40;;
84080;SDS011;74173;48.190;16.350;2023-11-21T05:51:55;7.75;;;5.63;;
84080;SDS011;74173;48.190;16.350;2023-11-21T05:54:21;6.63;;;4.85;;
84080;SDS011;74173;48.190;16.350;2023-11-21T05:56:47;8.63;;;5.32;;
84080;SDS011;74173;48.190;16.350;2023-11-21T05:59:13;7.05;;;5.50;;
84080;SDS011;74173;48.190;16.350;2023-11-21T06:01:40;6.38;;;4.47;;
84080;SDS011;74173;48.190;16.350;2023-11-21T06:04:05;6.22;;;5.60;;
84080;SDS011;74173;48.190;16.350;2023-11-21T06:06:33;10.23;;;6.63;;
84080;SDS011;74173;48.190;16.350;2023-11-21T06:08:58;8.32;;;4.75;;
84080;SDS011;74173;48.190;16.350;2023-11-21T06:11:24;10.57;;;5.30;;
84080;SDS011;74173;48.190;16.350;2023-11-21T06:13:49;9.30;;;7.05;;
84080;SDS011;74173;48.190;16.350;2023-11-21T06:16:15;8.00;;;5.55;;
84080;SDS011;74173;48.190;16.350;2023-11-21T06:18:44;7.68;;;5.38;;
84080;SDS011;74173;48.190;16.350;2023-11-21T06:21:11;7.50;;;6.22;;
84080;SDS011;74173;48.190;16.350;2023-11-21T06:23:37;5.45;;;4.90;;
84080;SDS011;74173;48.190;16.350;2023-11-21T06:26:02;8.23;;;5.20;;
84080;SDS011;74173;48.190;16.350;2023-11-21T06:28:29;9.48;;;6.03;;
84080;SDS011;74173;48.190;16.350;2023-11-21T06:30:55;7.03;;;5.05;;
84080;SDS011;74173;48.190;16.350;2023-11-21T06:33:23;10.25;;;6.55;;
84080;SDS011;74173;48.190;16.350;2023-11-21T06:35:53;9.57;;;5.55;;
84080;SDS011;74173;48.190;16.350;2023-11-21T06:38:20;7.70;;;5.30;;
84080;SDS011;74173;48.190;16.350;2023-11-21T06:40:45;9.18;;;6.97;;
84080;SDS011;74173;48.190;16.350;2023-11-21T06:43:11;9.27;;;5.72;;
84080;SDS011;74173;48.190;16.350;2023-11-21T06:45:36;7.68;;;6.35;;
84080;SDS011;74173;48.190;16.350;2023-11-21T06:48:02;10.60;;;6.07;;
84080;SDS011;74173;48.190;16.350;2023-11-21T06:50:28;8.88;;;5.35;;
84080;SDS011;74173;48.190;16.350;2023-11-21T06:52:53;7.32;;;6.10;;
84080;SDS011;74173;48.190;16.350;2023-11-21T06:55:19;9.10;;;6.70;;
84080;SDS011;74173;48.190;16.350;2023-11-21T06:57:45;9.57;;;5.95;;
84080;SDS011;74173;48.190;16.350;2023-11-21T07:00:12;9.63;;;6.22;;
84080;SDS011;74173;48.190;16.350;2023-11-21T07:02:38;10.60;;;6.10;;
84080;SDS011;74173;48.190;16.350;2023-11-21T07:05:04;13.20;;;5.75;;
84080;SDS011;74173;48.190;16.350;2023-11-21T07:07:31;9.43;;;5.22;;
84080;SDS011;74173;48.190;16.350;2023-11-21T07:09:56;7.55;;;5.00;;
84080;SDS011;74173;48.190;16.350;2023-11-21T07:12:22;11.80;;;5.45;;
84080;SDS011;74173;48.190;16.350;2023-11-21T07:14:48;11.32;;;7.15;;
84080;SDS011;74173;48.190;16.350;2023-11-21T07:17:14;9.55;;;5.85;;
84080;SDS011;74173;48.190;16.350;2023-11-21T07:19:42;9.18;;;5.65;;
84080;SDS011;74173;48.190;16.350;2023-11-21T07:22:08;11.88;;;5.88;;
84080;SDS011;74173;48.190;16.350;2023-11-21T07:24:34;13.63;;;5.97;;
84080;SDS011;74173;48.190;16.350;2023-11-21T07:27:00;8.35;;;5.93;;
84080;SDS011;74173;48.190;16.350;2023-11-21T07:29:26;11.25;;;7.00;;
84080;SDS011;74173;48.190;16.350;2023-11-21T07:31:54;12.70;;;7.30;;
84080;SDS011;74173;48.190;16.350;2023-11-21T07:34:20;9.70;;;5.85;;
84080;SDS011;74173;48.190;16.350;2023-11-21T07:36:46;14.45;;;5.22;;
84080;SDS011;74173;48.190;16.350;2023-11-21T07:39:12;8.48;;;7.68;;
84080;SDS011;74173;48.190;16.350;2023-11-21T07:41:38;8.70;;;6.70;;
84080;SDS011;74173;48.190;16.350;2023-11-21T07:44:10;9.43;;;5.85;;
84080;SDS011;74173;48.190;16.350;2023-11-21T07:46:35;8.63;;;5.45;;
84080;SDS011;74173;48.190;16.350;2023-11-21T07:49:01;9.32;;;6.75;;
84080;SDS011;74173;48.190;16.350;2023-11-21T07:51:26;9.30;;;6.43;;
84080;SDS011;74173;48.190;16.350;2023-11-21T07:53:52;7.82;;;5.65;;
84080;SDS011;74173;48.190;16.350;2023-11-21T07:56:17;6.25;;;5.25;;
84080;SDS011;74173;48.190;16.350;2023-11-21T07:58:43;8.65;;;5.70;;
84080;SDS011;74173;48.190;16.350;2023-11-21T08:01:09;9.40;;;5.45;;
84080;SDS011;74173;48.190;16.350;2023-11-21T08:03:36;8.35;;;6.13;;
84080;SDS011;74173;48.190;16.350;2023-11-21T08:06:02;10.30;;;5.57;;
84080;SDS011;74173;48.190;16.350;2023-11-21T08:08:30;5.72;;;4.97;;
84080;SDS011;74173;48.190;16.350;2023-11-21T08:10:57;8.93;;;5.30;;
84080;SDS011;74173;48.190;16.350;2023-11-21T08:13:26;12.55;;;6.07;;
84080;SDS011;74173;48.190;16.350;2023-11-21T08:15:53;8.38;;;5.43;;
84080;SDS011;74173;48.190;16.350;2023-11-21T08:18:19;11.02;;;6.45;;
84080;SDS011;74173;48.190;16.350;2023-11-21T08:20:45;8.77;;;5.78;;
84080;SDS011;74173;48.190;16.350;2023-11-21T08:23:14;10.60;;;5.00;;
84080;SDS011;74173;48.190;16.350;2023-11-21T08:25:42;8.65;;;5.30;;
84080;SDS011;74173;48.190;16.350;2023-11-21T08:28:08;11.00;;;5.25;;
84080;SDS011;74173;48.190;16.350;2023-11-21T08:30:33;7.13;;;5.68;;
84080;SDS011;74173;48.190;16.350;2023-11-21T08:33:00;11.63;;;4.75;;
84080;SDS011;74173;48.190;16.350;2023-11-21T08:35:25;8.10;;;4.88;;
84080;SDS011;74173;48.190;16.350;2023-11-21T08:37:51;7.30;;;5.43;;
84080;SDS011;74173;48.190;16.350;2023-11-21T08:40:20;6.45;;;5.78;;
84080;SDS011;74173;48.190;16.350;2023-11-21T08:42:46;8.75;;;4.20;;
84080;SDS011;74173;48.190;16.350;2023-11-21T08:45:13;9.80;;;5.22;;
84080;SDS011;74173;48.190;16.350;2023-11-21T08:47:42;7.22;;;6.15;;
84080;SDS011;74173;48.190;16.350;2023-11-21T08:50:09;6.20;;;5.70;;
84080;SDS011;74173;48.190;16.350;2023-11-21T08:52:37;8.40;;;5.45;;
84080;SDS011;74173;48.190;16.350;2023-11-21T08:55:06;5.88;;;4.50;;
84080;SDS011;74173;48.190;16.350;2023-11-21T08:57:37;7.07;;;4.50;;
84080;SDS011;74173;48.190;16.350;2023-11-21T09:00:04;8.70;;;4.95;;
84080;SDS011;74173;48.190;16.350;2023-11-21T09:02:32;8.30;;;4.47;;
84080;SDS011;74173;48.190;16.350;2023-11-21T09:04:59;9.68;;;6.03;;
84080;SDS011;74173;48.190;16.350;2023-11-21T09:07:28;6.57;;;4.93;;
84080;SDS011;74173;48.190;16.350;2023-11-21T09:09:54;8.20;;;5.18;;
84080;SDS011;74173;48.190;16.350;2023-11-21T09:12:20;6.50;;;5.10;;
84080;SDS011;74173;48.190;16.350;2023-11-21T09:14:46;8.05;;;4.70;;
84080;SDS011;74173;48.190;16.350;2023-11-21T09:17:11;9.65;;;4.50;;
84080;SDS011;74173;48.190;16.350;2023-11-21T09:19:40;7.35;;;5.03;;
84080;SDS011;74173;48.190;16.350;2023-11-21T09:22:06;8.63;;;4.68;;
84080;SDS011;74173;48.190;16.350;2023-11-21T09:24:32;15.35;;;5.60;;
84080;SDS011;74173;48.190;16.350;2023-11-21T09:26:58;8.70;;;4.45;;
84080;SDS011;74173;48.190;16.350;2023-11-21T09:29:28;4.93;;;4.25;;
84080;SDS011;74173;48.190;16.350;2023-11-21T09:31:57;6.40;;;4.50;;
84080;SDS011;74173;48.190;16.350;2023-11-21T09:34:24;5.65;;;3.83;;
84080;SDS011;74173;48.190;16.350;2023-11-21T09:36:50;5.32;;;3.65;;
84080;SDS011;74173;48.190;16.350;2023-11-21T09:39:19;7.30;;;3.60;;
84080;SDS011;74173;48.190;16.350;2023-11-21T09:42:04;4.57;;;3.08;;
84080;SDS011;74173;48.190;16.350;2023-11-21T09:47:07;6.22;;;3.63;;
84080;SDS011;74173;48.190;16.350;2023-11-21T09:49:35;5.18;;;3.25;;
84080;SDS011;74173;48.190;16.350;2023-11-21T09:52:02;8.50;;;4.35;;
84080;SDS011;74173;48.190;16.350;2023-11-21T09:54:29;8.55;;;4.57;;
84080;SDS011;74173;48.190;16.350;2023-11-21T09:56:57;4.65;;;3.38;;
84080;SDS011;74173;48.190;16.350;2023-11-21T09:59:23;3.67;;;3.35;;
84080;SDS011;74173;48.190;16.350;2023-11-21T10:01:49;7.03;;;4.55;;
84080;SDS011;74173;48.190;16.350;2023-11-21T10:04:15;5.53;;;3.25;;
84080;SDS011;74173;48.190;16.350;2023-11-21T10:06:42;5.47;;;3.35;;
84080;SDS011;74173;48.190;16.350;2023-11-21T10:09:11;6.95;;;3.72;;
84080;SDS011;74173;48.190;16.350;2023-11-21T10:11:39;3.78;;;2.67;;
84080;SDS011;74173;48.190;16.350;2023-11-21T10:16:32;4.75;;;4.35;;
84080;SDS011;74173;48.190;16.350;2023-11-21T10:18:57;7.05;;;3.25;;
84080;SDS011;74173;48.190;16.350;2023-11-21T10:21:23;5.47;;;3.65;;
84080;SDS011;74173;48.190;16.350;2023-11-21T10:23:49;5.32;;;3.05;;
84080;SDS011;74173;48.190;16.350;2023-11-21T10:26:18;4.68;;;3.45;;
84080;SDS011;74173;48.190;16.350;2023-11-21T10:28:58;4.97;;;3.22;;
84080;SDS011;74173;48.190;16.350;2023-11-21T10:31:27;5.68;;;3.13;;
84080;SDS011;74173;48.190;16.350;2023-11-21T10:33:53;6.28;;;3.88;;
84080;SDS011;74173;48.190;16.350;2023-11-21T10:36:27;5.05;;;3.13;;
84080;SDS011;74173;48.190;16.350;2023-11-21T10:41:20;5.97;;;2.78;;
84080;SDS011;74173;48.190;16.350;2023-11-21T10:43:46;5.90;;;3.15;;
84080;SDS011;74173;48.190;16.350;2023-11-21T10:46:13;6.70;;;3.78;;
84080;SDS011;74173;48.190;16.350;2023-11-21T10:48:40;7.32;;;3.03;;
84080;SDS011;74173;48.190;16.350;2023-11-21T10:51:08;4.82;;;4.43;;
84080;SDS011;74173;48.190;16.350;2023-11-21T10:53:42;4.40;;;4.07;;
84080;SDS011;74173;48.190;16.350;2023-11-21T10:56:11;3.35;;;2.83;;
84080;SDS011;74173;48.190;16.350;2023-11-21T10:58:43;4.53;;;3.97;;
84080;SDS011;74173;48.190;16.350;2023-11-21T11:01:09;7.32;;;3.50;;
84080;SDS011;74173;48.190;16.350;2023-11-21T11:03:39;5.10;;;2.92;;
84080;SDS011;74173;48.190;16.350;2023-11-21T11:06:06;5.22;;;3.20;;
84080;SDS011;74173;48.190;16.350;2023-11-21T11:08:39;5.80;;;3.67;;
84080;SDS011;74173;48.190;16.350;2023-11-21T11:11:06;5.43;;;2.90;;
84080;SDS011;74173;48.190;16.350;2023-11-21T11:13:32;4.57;;;3.60;;
84080;SDS011;74173;48.190;16.350;2023-11-21T11:15:58;4.15;;;2.60;;
84080;SDS011;74173;48.190;16.350;2023-11-21T11:18:26;4.43;;;2.78;;
84080;SDS011;74173;48.190;16.350;2023-11-21T11:21:01;3.60;;;2.78;;
84080;SDS011;74173;48.190;16.350;2023-11-21T11:29:33;4.38;;;3.35;;
84080;SDS011;74173;48.190;16.350;2023-11-21T11:35:06;4.45;;;3.08;;
84080;SDS011;74173;48.190;16.350;2023-11-21T11:37:36;3.75;;;2.95;;
84080;SDS011;74173;48.190;16.350;2023-11-21T11:40:05;4.40;;;3.88;;
84080;SDS011;74173;48.190;16.350;2023-11-21T11:42:32;5.05;;;4.55;;
84080;SDS011;74173;48.190;16.350;2023-11-21T11:44:58;3.78;;;2.97;;
84080;SDS011;74173;48.190;16.350;2023-11-21T11:47:32;6.00;;;3.63;;
84080;SDS011;74173;48.190;16.350;2023-11-21T11:50:08;6.90;;;3.08;;
84080;SDS011;74173;48.190;16.350;2023-11-21T11:55:16;7.63;;;3.47;;
84080;SDS011;74173;48.190;16.350;2023-11-21T11:57:47;4.60;;;3.33;;
84080;SDS011;74173;48.190;16.350;2023-11-21T12:02:58;4.47;;;3.45;;
84080;SDS011;74173;48.190;16.350;2023-11-21T12:05:28;4.88;;;2.80;;
84080;SDS011;74173;48.190;16.350;2023-11-21T12:07:57;4.28;;;3.38;;
84080;SDS011;74173;48.190;16.350;2023-11-21T12:10:29;5.82;;;2.78;;
84080;SDS011;74173;48.190;16.350;2023-11-21T12:12:56;5.43;;;4.80;;
84080;SDS011;74173;48.190;16.350;2023-11-21T12:15:24;5.07;;;3.10;;
84080;SDS011;74173;48.190;16.350;2023-11-21T12:17:56;4.85;;;3.28;;
84080;SDS011;74173;48.190;16.350;2023-11-21T12:20:24;9.90;;;4.18;;
84080;SDS011;74173;48.190;16.350;2023-11-21T12:22:50;3.15;;;2.80;;
84080;SDS011;74173;48.190;16.350;2023-11-21T12:25:17;4.28;;;2.97;;
84080;SDS011;74173;48.190;16.350;2023-11-21T12:27:45;7.55;;;4.32;;
84080;SDS011;74173;48.190;16.350;2023-11-21T12:30:12;6.68;;;3.90;;
84080;SDS011;74173;48.190;16.350;2023-11-21T12:32:42;5.60;;;3.42;;
84080;SDS011;74173;48.190;16.350;2023-11-21T12:35:09;5.43;;;3.38;;
84080;SDS011;74173;48.190;16.350;2023-11-21T12:37:37;6.13;;;3.55;;
84080;SDS011;74173;48.190;16.350;2023-11-21T12:40:07;4.70;;;4.20;;
84080;SDS011;74173;48.190;16.350;2023-11-21T12:42:36;5.18;;;4.05;;
84080;SDS011;74173;48.190;16.350;2023-11-21T12:45:06;3.72;;;3.42;;
84080;SDS011;74173;48.190;16.350;2023-11-21T12:47:43;4.82;;;3.55;;
84080;SDS011;74173;48.190;16.350;2023-11-21T12:50:09;4.95;;;3.78;;
84080;SDS011;74173;48.190;16.350;2023-11-21T12:52:44;5.45;;;3.90;;
84080;SDS011;74173;48.190;16.350;2023-11-21T12:55:20;7.35;;;4.35;;
84080;SDS011;74173;48.190;16.350;2023-11-21T12:57:53;7.43;;;3.70;;
84080;SDS011;74173;48.190;16.350;2023-11-21T13:00:20;5.75;;;4.05;;
84080;SDS011;74173;48.190;16.350;2023-11-21T13:02:54;6.05;;;4.32;;
84080;SDS011;74173;48.190;16.350;2023-11-21T13:08:20;6.88;;;3.90;;
84080;SDS011;74173;48.190;16.350;2023-11-21T13:10:54;5.28;;;4.15;;
84080;SDS011;74173;48.190;16.350;2023-11-21T13:13:21;5.00;;;4.03;;
84080;SDS011;74173;48.190;16.350;2023-11-21T13:18:21;4.40;;;3.20;;
84080;SDS011;74173;48.190;16.350;2023-11-21T13:20:48;6.35;;;3.85;;
84080;SDS011;74173;48.190;16.350;2023-11-21T13:23:15;4.57;;;3.17;;
84080;SDS011;74173;48.190;16.350;2023-11-21T13:25:42;5.65;;;4.47;;
84080;SDS011;74173;48.190;16.350;2023-11-21T13:28:10;5.28;;;3.42;;
84080;SDS011;74173;48.190;16.350;2023-11-21T13:30:39;5.65;;;3.75;;
84080;SDS011;74173;48.190;16.350;2023-11-21T13:35:32;4.80;;;3.38;;
84080;SDS011;74173;48.190;16.350;2023-11-21T13:38:08;4.22;;;3.83;;
84080;SDS011;74173;48.190;16.350;2023-11-21T13:40:38;6.28;;;3.92;;
84080;SDS011;74173;48.190;16.350;2023-11-21T13:43:12;5.63;;;3.25;;
84080;SDS011;74173;48.190;16.350;2023-11-21T13:45:42;4.90;;;3.80;;
84080;SDS011;74173;48.190;16.350;2023-11-21T13:48:09;6.70;;;4.45;;
84080;SDS011;74173;48.190;16.350;2023-11-21T13:50:42;4.32;;;3.63;;
84080;SDS011;74173;48.190;16.350;2023-11-21T13:53:21;8.05;;;4.97;;
84080;SDS011;74173;48.190;16.350;2023-11-21T13:55:50;8.82;;;5.43;;
84080;SDS011;74173;48.190;16.350;2023-11-21T13:58:21;4.80;;;3.90;;
84080;SDS011;74173;48.190;16.350;2023-11-21T14:01:05;5.40;;;4.88;;
84080;SDS011;74173;48.190;16.350;2023-11-21T14:03:38;5.85;;;4.30;;
84080;SDS011;74173;48.190;16.350;2023-11-21T14:06:15;6.22;;;5.53;;
84080;SDS011;74173;48.190;16.350;2023-11-21T14:08:50;6.40;;;4.20;;
84080;SDS011;74173;48.190;16.350;2023-11-21T14:11:16;5.50;;;4.22;;
84080;SDS011;74173;48.190;16.350;2023-11-21T14:13:44;6.72;;;4.07;;
84080;SDS011;74173;48.190;16.350;2023-11-21T14:16:14;6.25;;;4.80;;
84080;SDS011;74173;48.190;16.350;2023-11-21T14:18:44;9.05;;;4.75;;
84080;SDS011;74173;48.190;16.350;2023-11-21T14:21:29;9.60;;;4.72;;
84080;SDS011;74173;48.190;16.350;2023-11-21T14:23:54;6.80;;;5.55;;
84080;SDS011;74173;48.190;16.350;2023-11-21T14:26:22;6.47;;;4.40;;
84080;SDS011;74173;48.190;16.350;2023-11-21T14:28:49;5.97;;;4.13;;
84080;SDS011;74173;48.190;16.350;2023-11-21T14:31:16;6.20;;;4.60;;
84080;SDS011;74173;48.190;16.350;2023-11-21T14:33:42;5.70;;;4.85;;
84080;SDS011;74173;48.190;16.350;2023-11-21T14:36:13;6.63;;;4.25;;
84080;SDS011;74173;48.190;16.350;2023-11-21T14:38:42;5.93;;;5.32;;
84080;SDS011;74173;48.190;16.350;2023-11-21T14:41:07;6.93;;;5.53;;
84080;SDS011;74173;48.190;16.350;2023-11-21T14:43:35;7.00;;;5.15;;
84080;SDS011;74173;48.190;16.350;2023-11-21T14:46:01;7.10;;;6.40;;
84080;SDS011;74173;48.190;16.350;2023-11-21T14:48:29;6.50;;;4.95;;
84080;SDS011;74173;48.190;16.350;2023-11-21T14:51:13;7.45;;;5.15;;
84080;SDS011;74173;48.190;16.350;2023-11-21T14:53:58;8.40;;;5.80;;
84080;SDS011;74173;48.190;16.350;2023-11-21T14:56:35;7.30;;;5.60;;
84080;SDS011;74173;48.190;16.350;2023-11-21T14:59:04;7.68;;;6.90;;
84080;SDS011;74173;48.190;16.350;2023-11-21T15:01:41;8.70;;;6.22;;
84080;SDS011;74173;48.190;16.350;2023-11-21T15:04:23;10.50;;;6.75;;
84080;SDS011;74173;48.190;16.350;2023-11-21T15:07:04;7.93;;;5.93;;
84080;SDS011;74173;48.190;16.350;2023-11-21T15:09:31;10.73;;;6.30;;